Terminal Aerodrome Forecast
Issued by NWS Wilmington, OH

Current Version | Previous Version | Graphics & Text | Print | Product List | Glossary On
Versions: 1 2 3 4 5 6 7 8 9 10 11 12 13 14 15 16 17 18 19 20 21 22 23 24 25 26 27 28 29 30 31 32
000
FTUS41 KILN 171100
TAFCVG
TAF
KCVG 171134Z 1712/1818 20008G16KT P6SM FEW006 SCT250
     FM171500 24012G22KT P6SM SCT040 BKN250
      TEMPO 1720/1724 OVC035
     FM180000 28008KT P6SM OVC025
     FM181300 31012KT P6SM OVC022=

USA.gov is the U.S. government's official web portal to all federal, state and local government web resources and services.